createdAt,value
2023-04-04T00:01:06.055Z,1.10
2023-04-04T00:03:33.095Z,1.10
2023-04-04T00:06:00.025Z,1.10
2023-04-04T00:08:27.467Z,1.10
2023-04-04T00:11:01.265Z,1.10
2023-04-04T00:13:29.503Z,1.00
2023-04-04T00:15:56.276Z,1.10
2023-04-04T00:18:24.033Z,1.00
2023-04-04T00:20:50.891Z,1.00
2023-04-04T00:23:17.761Z,1.00
2023-04-04T00:25:51.324Z,1.00
2023-04-04T00:28:22.040Z,0.90
2023-04-04T00:30:50.589Z,0.90
2023-04-04T00:33:17.998Z,0.90
2023-04-04T00:35:44.768Z,0.90
2023-04-04T00:38:12.145Z,1.00
2023-04-04T00:40:47.969Z,1.00
2023-04-04T00:43:16.690Z,0.90
2023-04-04T00:45:43.898Z,0.90
2023-04-04T00:48:11.004Z,0.90
2023-04-04T00:50:39.242Z,0.80
2023-04-04T00:53:06.657Z,0.90
2023-04-04T00:55:33.927Z,0.90
2023-04-04T00:58:01.423Z,0.90
2023-04-04T01:00:29.072Z,0.90
2023-04-04T01:02:56.309Z,0.80
2023-04-04T01:05:23.495Z,0.90
2023-04-04T01:07:51.645Z,0.90
2023-04-04T01:10:18.774Z,0.90
2023-04-04T01:12:46.194Z,1.10
2023-04-04T01:15:13.388Z,0.90
2023-04-04T01:17:41.674Z,0.90
2023-04-04T01:20:15.045Z,1.00
2023-04-04T01:22:46.253Z,0.90
2023-04-04T01:25:14.507Z,0.90
2023-04-04T01:27:41.965Z,0.90
2023-04-04T01:30:10.453Z,0.90
2023-04-04T01:32:51.331Z,0.80
2023-04-04T01:36:05.077Z,0.80
2023-04-04T01:38:43.713Z,0.90
2023-04-04T01:41:12.581Z,0.80
2023-04-04T01:43:39.355Z,0.80
2023-04-04T01:46:06.207Z,0.70
2023-04-04T01:48:33.492Z,0.70
2023-04-04T01:51:00.628Z,0.70
2023-04-04T01:53:27.402Z,0.60
2023-04-04T01:55:54.532Z,0.60
2023-04-04T01:58:22.299Z,0.60
2023-04-04T02:00:49.008Z,0.60
2023-04-04T02:03:15.893Z,0.60
2023-04-04T02:05:43.194Z,0.70
2023-04-04T02:08:09.997Z,0.80
2023-04-04T02:10:38.987Z,0.70
2023-04-04T02:13:06.773Z,0.70
2023-04-04T02:15:34.837Z,0.60
2023-04-04T02:18:02.307Z,0.60
2023-04-04T02:20:30.175Z,0.50
2023-04-04T02:22:57.127Z,0.50
2023-04-04T02:25:25.848Z,0.50
2023-04-04T02:27:53.023Z,0.50
2023-04-04T02:30:20.238Z,0.40
2023-04-04T02:32:47.411Z,0.40
2023-04-04T02:35:14.590Z,0.40
2023-04-04T02:37:42.286Z,0.40
2023-04-04T02:40:11.566Z,0.50
2023-04-04T02:42:43.252Z,0.60
2023-04-04T02:45:11.004Z,0.50
2023-04-04T02:47:40.962Z,0.50
2023-04-04T02:50:09.182Z,0.30
2023-04-04T02:52:37.088Z,0.30
2023-04-04T02:55:04.720Z,0.30
2023-04-04T02:57:32.603Z,0.40
2023-04-04T02:59:59.934Z,0.40
2023-04-04T03:02:26.718Z,0.40
2023-04-04T03:04:53.806Z,0.40
2023-04-04T03:07:22.864Z,0.40
2023-04-04T03:09:50.247Z,0.30
2023-04-04T03:12:20.906Z,0.30
2023-04-04T03:14:47.625Z,0.30
2023-04-04T03:17:15.884Z,0.30
2023-04-04T03:19:42.579Z,0.30
2023-04-04T03:22:09.276Z,0.30
2023-04-04T03:24:37.237Z,0.10
2023-04-04T03:27:05.356Z,0.00
2023-04-04T03:29:32.427Z,0.00
2023-04-04T03:31:59.510Z,-0.10
2023-04-04T03:34:27.696Z,-0.10
2023-04-04T03:36:54.409Z,-0.20
2023-04-04T03:39:21.540Z,-0.20
2023-04-04T03:41:48.776Z,-0.10
2023-04-04T03:44:15.657Z,-0.10
2023-04-04T03:46:43.977Z,0.00
2023-04-04T03:49:11.452Z,0.00
2023-04-04T03:51:38.122Z,0.00
2023-04-04T03:54:05.221Z,0.10
2023-04-04T03:56:32.681Z,0.00
2023-04-04T03:59:00.097Z,0.00
2023-04-04T04:01:27.243Z,0.00
2023-04-04T04:03:54.362Z,0.00
2023-04-04T04:06:21.134Z,0.00
2023-04-04T04:08:48.639Z,0.10
2023-04-04T04:11:18.340Z,0.10
2023-04-04T04:13:45.499Z,0.20
2023-04-04T04:16:13.323Z,0.20
2023-04-04T04:18:40.423Z,0.30
2023-04-04T04:21:07.441Z,0.30
2023-04-04T04:23:37.031Z,0.20
2023-04-04T04:26:03.889Z,0.20
2023-04-04T04:28:33.333Z,0.30
2023-04-04T04:31:09.890Z,0.30
2023-04-04T04:33:39.348Z,0.30
2023-04-04T04:36:07.593Z,0.30
2023-04-04T04:38:36.978Z,0.20
2023-04-04T04:41:05.636Z,0.10
2023-04-04T04:43:32.940Z,0.10
2023-04-04T04:45:59.552Z,0.10
2023-04-04T04:48:26.282Z,0.00
2023-04-04T04:50:55.026Z,-0.10
2023-04-04T04:53:22.144Z,-0.10
2023-04-04T04:55:51.220Z,-0.10
2023-04-04T04:58:21.745Z,-0.10
2023-04-04T05:00:48.510Z,-0.10
2023-04-04T05:03:15.622Z,-0.10
2023-04-04T05:05:44.112Z,0.10
2023-04-04T05:08:10.843Z,0.20
2023-04-04T05:10:38.144Z,0.20
2023-04-04T05:13:05.077Z,0.30
2023-04-04T05:15:32.580Z,0.30
2023-04-04T05:18:00.670Z,0.30
2023-04-04T05:20:27.690Z,0.30
2023-04-04T05:22:59.062Z,0.30
2023-04-04T05:25:27.166Z,0.40
2023-04-04T05:27:55.724Z,0.50
2023-04-04T05:30:22.407Z,0.60
2023-04-04T05:32:52.070Z,0.60
2023-04-04T05:35:19.040Z,0.40
2023-04-04T05:37:46.610Z,0.40
2023-04-04T05:40:16.225Z,0.40
2023-04-04T05:42:44.718Z,0.50
2023-04-04T05:45:11.573Z,0.40
2023-04-04T05:47:38.361Z,0.50
2023-04-04T05:50:06.971Z,0.60
2023-04-04T05:52:34.095Z,0.70
2023-04-04T05:55:00.798Z,0.60
2023-04-04T05:57:27.971Z,0.80
2023-04-04T05:59:54.772Z,0.80
2023-04-04T06:02:22.654Z,0.80
2023-04-04T06:04:49.481Z,0.90
2023-04-04T06:07:17.095Z,0.90
2023-04-04T06:09:44.550Z,0.80
2023-04-04T06:12:12.000Z,0.80
2023-04-04T06:14:38.719Z,1.00
2023-04-04T06:17:06.589Z,1.00
2023-04-04T06:19:33.681Z,1.00
2023-04-04T06:22:02.066Z,1.20
2023-04-04T06:24:28.756Z,1.20
2023-04-04T06:26:55.598Z,1.20
2023-04-04T06:29:22.662Z,1.20
2023-04-04T06:31:50.348Z,1.30
2023-04-04T06:34:17.092Z,1.30
2023-04-04T06:36:44.195Z,1.40
2023-04-04T06:39:10.898Z,1.60
2023-04-04T06:41:37.629Z,1.60
2023-04-04T06:44:07.227Z,1.50
2023-04-04T06:46:34.394Z,1.80
2023-04-04T06:49:01.204Z,1.90
2023-04-04T06:51:29.048Z,2.10
2023-04-04T06:53:57.107Z,2.10
2023-04-04T06:56:24.034Z,2.20
2023-04-04T06:58:51.447Z,2.10
2023-04-04T07:01:18.528Z,2.20
2023-04-04T07:03:45.776Z,2.50
2023-04-04T07:06:12.610Z,2.50
2023-04-04T07:08:39.757Z,2.30
2023-04-04T07:11:08.059Z,2.60
2023-04-04T07:13:35.862Z,2.80
2023-04-04T07:16:02.884Z,2.80
2023-04-04T07:18:29.698Z,2.90
2023-04-04T07:20:56.441Z,3.10
2023-04-04T07:23:23.174Z,2.80
2023-04-04T07:25:50.169Z,2.80
2023-04-04T07:28:16.931Z,2.60
2023-04-04T07:30:44.067Z,2.70
2023-04-04T07:33:11.052Z,2.60
2023-04-04T07:35:38.443Z,2.50
2023-04-04T07:38:05.578Z,2.60
2023-04-04T07:40:32.780Z,2.70
2023-04-04T07:42:59.488Z,2.60
2023-04-04T07:45:26.579Z,2.60
2023-04-04T07:47:53.320Z,2.70
2023-04-04T07:50:20.458Z,3.00
2023-04-04T07:52:55.895Z,3.20
2023-04-04T07:55:25.575Z,3.00
2023-04-04T07:57:53.515Z,3.00
2023-04-04T08:00:26.454Z,2.50
2023-04-04T08:02:55.111Z,2.70
2023-04-04T08:05:22.176Z,2.80
2023-04-04T08:07:49.377Z,2.90
2023-04-04T08:10:19.329Z,2.80
2023-04-04T08:12:46.198Z,2.80
2023-04-04T08:15:13.196Z,2.80
2023-04-04T08:17:40.074Z,2.70
2023-04-04T08:20:08.234Z,2.80
2023-04-04T08:22:35.436Z,2.50
2023-04-04T08:25:02.596Z,2.50
2023-04-04T08:27:29.259Z,2.30
2023-04-04T08:29:56.816Z,2.50
2023-04-04T08:32:23.758Z,2.50
2023-04-04T08:34:51.390Z,2.50
2023-04-04T08:37:18.309Z,2.60
2023-04-04T08:39:45.801Z,2.50
2023-04-04T08:42:17.227Z,2.50
2023-04-04T08:44:45.788Z,2.30
2023-04-04T08:47:15.009Z,2.30
2023-04-04T08:49:44.462Z,2.50
2023-04-04T08:52:15.206Z,2.70
2023-04-04T08:54:43.770Z,3.00
2023-04-04T08:57:10.775Z,3.10
2023-04-04T08:59:37.907Z,3.50
2023-04-04T09:02:11.220Z,3.80
2023-04-04T09:04:40.931Z,3.70
2023-04-04T09:07:09.830Z,3.80
2023-04-04T09:09:37.984Z,3.80
2023-04-04T09:12:05.646Z,3.80
2023-04-04T09:14:34.745Z,3.90
2023-04-04T09:17:01.869Z,3.70
2023-04-04T09:19:28.541Z,3.70
2023-04-04T09:21:55.914Z,4.20
2023-04-04T09:24:22.618Z,4.90
2023-04-04T09:26:52.216Z,5.00
2023-04-04T09:29:20.884Z,4.50
2023-04-04T09:31:49.572Z,4.50
2023-04-04T09:34:19.625Z,4.40
2023-04-04T09:36:46.584Z,4.50
2023-04-04T09:39:17.670Z,4.40
2023-04-04T09:41:45.873Z,4.20
2023-04-04T09:44:13.575Z,4.30
2023-04-04T09:46:41.565Z,4.40
2023-04-04T09:49:13.508Z,4.70
2023-04-04T09:51:42.626Z,4.60
2023-04-04T09:54:28.885Z,4.20
2023-04-04T09:56:56.878Z,3.90
2023-04-04T09:59:24.700Z,3.80
2023-04-04T10:01:53.597Z,3.90
2023-04-04T10:04:20.708Z,3.90
2023-04-04T10:06:48.111Z,4.00
2023-04-04T10:09:16.501Z,4.20
2023-04-04T10:11:43.363Z,4.40
2023-04-04T10:14:10.143Z,4.80
2023-04-04T10:16:40.277Z,5.20
2023-04-04T10:19:09.215Z,5.60
2023-04-04T10:21:36.717Z,5.60
2023-04-04T10:24:09.716Z,5.30
2023-04-04T10:26:36.961Z,4.80
2023-04-04T10:29:06.493Z,4.30
2023-04-04T10:31:37.382Z,4.50
2023-04-04T10:34:29.092Z,4.60
2023-04-04T10:37:12.840Z,4.40
2023-04-04T10:39:49.354Z,4.40
2023-04-04T10:42:17.877Z,4.70
2023-04-04T10:44:46.502Z,5.10
2023-04-04T10:47:22.100Z,5.20
2023-04-04T10:49:51.110Z,5.20
2023-04-04T10:52:20.371Z,5.40
2023-04-04T10:54:50.425Z,5.30
2023-04-04T10:57:17.981Z,5.10
2023-04-04T11:00:10.200Z,5.00
2023-04-04T11:02:57.185Z,5.20
2023-04-04T11:05:34.694Z,5.70
2023-04-04T11:08:08.803Z,6.00
2023-04-04T11:10:38.414Z,6.00
2023-04-04T11:13:18.726Z,5.40
2023-04-04T11:16:00.284Z,5.30
2023-04-04T11:18:52.050Z,5.40
2023-04-04T11:21:28.028Z,5.60
2023-04-04T11:23:55.070Z,5.60
2023-04-04T11:26:27.807Z,5.60
2023-04-04T11:29:02.815Z,5.40
2023-04-04T11:31:41.095Z,5.30
2023-04-04T11:34:12.707Z,5.30
2023-04-04T11:36:40.641Z,5.30
2023-04-04T11:39:30.868Z,5.40
2023-04-04T11:42:11.659Z,5.00
2023-04-04T11:45:02.096Z,5.00
2023-04-04T11:47:32.196Z,5.20
2023-04-04T11:50:00.857Z,5.00
2023-04-04T11:52:33.746Z,5.30
2023-04-04T11:55:01.082Z,5.80
2023-04-04T11:57:28.209Z,5.80
2023-04-04T11:59:55.321Z,5.20
2023-04-04T12:02:34.797Z,5.00
2023-04-04T12:05:02.090Z,5.00
2023-04-04T12:07:31.784Z,5.10
2023-04-04T12:09:59.119Z,5.40
2023-04-04T12:12:28.356Z,5.50
2023-04-04T12:15:06.264Z,5.60
2023-04-04T12:17:42.219Z,5.70
2023-04-04T12:20:15.670Z,5.30
2023-04-04T12:22:43.121Z,4.90
2023-04-04T12:25:10.080Z,4.30
2023-04-04T12:27:37.209Z,4.10
2023-04-04T12:30:04.955Z,3.90
2023-04-04T12:32:32.551Z,4.10
2023-04-04T12:35:02.718Z,4.30
2023-04-04T12:37:30.562Z,4.60
2023-04-04T12:39:57.964Z,5.20
2023-04-04T12:42:26.326Z,5.50
2023-04-04T12:44:54.746Z,5.40
2023-04-04T12:47:24.306Z,4.90
2023-04-04T12:49:56.871Z,4.70
2023-04-04T12:52:29.872Z,4.50
2023-04-04T12:57:31.513Z,4.40
2023-04-04T13:00:02.586Z,4.50
2023-04-04T13:02:29.627Z,4.70
2023-04-04T13:05:00.093Z,4.70
2023-04-04T13:07:29.320Z,4.70
2023-04-04T13:10:05.615Z,4.50
2023-04-04T13:12:52.914Z,4.20
2023-04-04T13:15:19.719Z,4.30
2023-04-04T13:17:49.420Z,4.40
2023-04-04T13:20:18.531Z,4.40
2023-04-04T13:22:45.977Z,4.80
2023-04-04T13:25:13.087Z,4.80
2023-04-04T13:27:40.087Z,4.90
2023-04-04T13:30:10.064Z,4.90
2023-04-04T13:32:38.512Z,4.80
2023-04-04T13:35:06.208Z,4.80
2023-04-04T13:37:32.998Z,4.70
2023-04-04T13:40:00.024Z,4.30
2023-04-04T13:42:30.463Z,4.40
2023-04-04T13:44:58.163Z,4.60
2023-04-04T13:47:27.750Z,4.70
2023-04-04T13:49:55.075Z,4.80
2023-04-04T13:52:22.650Z,4.80
2023-04-04T13:54:50.664Z,5.00
2023-04-04T13:57:17.348Z,4.80
2023-04-04T13:59:44.422Z,4.90
2023-04-04T14:02:11.189Z,4.80
2023-04-04T14:04:38.294Z,4.70
2023-04-04T14:07:05.051Z,4.70
2023-04-04T14:09:31.894Z,4.60
2023-04-04T14:11:59.168Z,4.70
2023-04-04T14:14:26.103Z,4.90
2023-04-04T14:16:53.422Z,4.80
2023-04-04T14:19:20.196Z,4.70
2023-04-04T14:21:48.266Z,4.50
2023-04-04T14:24:15.176Z,4.40
2023-04-04T14:26:42.021Z,4.30
2023-04-04T14:29:08.875Z,4.40
2023-04-04T14:31:36.030Z,4.50
2023-04-04T14:34:04.164Z,4.40
2023-04-04T14:36:31.936Z,4.40
2023-04-04T14:38:58.835Z,4.30
2023-04-04T14:41:31.425Z,4.40
2023-04-04T14:43:58.178Z,4.60
2023-04-04T14:46:25.830Z,4.20
2023-04-04T14:48:53.811Z,4.20
2023-04-04T14:51:20.581Z,4.30
2023-04-04T14:53:47.618Z,4.30
2023-04-04T14:56:14.652Z,4.20
2023-04-04T14:58:41.337Z,4.10
2023-04-04T15:01:08.430Z,4.20
2023-04-04T15:03:35.613Z,4.50
2023-04-04T15:06:02.852Z,4.10
2023-04-04T15:08:29.527Z,4.00
2023-04-04T15:10:56.784Z,4.10
2023-04-04T15:13:23.841Z,4.10
2023-04-04T15:15:50.545Z,4.10
2023-04-04T15:18:17.814Z,4.20
2023-04-04T15:20:44.650Z,4.00
2023-04-04T15:23:11.919Z,3.80
2023-04-04T15:25:39.046Z,3.60
2023-04-04T15:28:06.086Z,3.80
2023-04-04T15:30:33.402Z,3.80
2023-04-04T15:33:00.507Z,4.00
2023-04-04T15:35:27.251Z,4.10
2023-04-04T15:37:54.547Z,4.20
2023-04-04T15:40:21.430Z,4.10
2023-04-04T15:42:48.719Z,4.10
2023-04-04T15:45:15.795Z,4.30
2023-04-04T15:47:43.007Z,4.40
2023-04-04T15:50:12.223Z,4.30
2023-04-04T15:52:39.084Z,4.30
2023-04-04T15:55:11.920Z,4.20
2023-04-04T15:57:39.595Z,4.10
2023-04-04T16:00:07.092Z,4.00
2023-04-04T16:02:33.971Z,4.00
2023-04-04T16:05:02.259Z,4.10
2023-04-04T16:07:28.967Z,4.10
2023-04-04T16:09:56.202Z,4.20
2023-04-04T16:12:25.687Z,4.20
2023-04-04T16:14:52.631Z,4.30
2023-04-04T16:17:19.371Z,4.40
2023-04-04T16:19:50.446Z,4.40
2023-04-04T16:22:17.234Z,4.20
2023-04-04T16:24:43.919Z,4.20
2023-04-04T16:27:11.164Z,4.20
2023-04-04T16:29:37.833Z,4.20
2023-04-04T16:32:06.387Z,4.10
2023-04-04T16:34:36.188Z,4.10
2023-04-04T16:37:04.839Z,3.90
2023-04-04T16:39:31.624Z,3.70
2023-04-04T16:42:00.795Z,3.60
2023-04-04T16:44:27.472Z,3.50
2023-04-04T16:46:54.278Z,3.40
2023-04-04T16:49:21.621Z,3.30
2023-04-04T16:51:48.394Z,3.20
2023-04-04T16:54:15.676Z,3.40
2023-04-04T16:56:42.501Z,3.20
2023-04-04T16:59:11.264Z,3.20
2023-04-04T17:01:38.295Z,3.10
2023-04-04T17:04:05.463Z,3.10
2023-04-04T17:06:33.330Z,3.00
2023-04-04T17:09:00.454Z,3.00
2023-04-04T17:11:28.157Z,2.90
2023-04-04T17:13:55.219Z,2.90
2023-04-04T17:16:23.434Z,2.90
2023-04-04T17:18:50.728Z,3.10
2023-04-04T17:21:18.766Z,3.00
2023-04-04T17:23:46.540Z,2.80
2023-04-04T17:26:13.276Z,2.60
2023-04-04T17:28:41.299Z,2.70
2023-04-04T17:31:08.457Z,2.60
2023-04-04T17:33:35.387Z,2.50
2023-04-04T17:36:03.628Z,2.70
2023-04-04T17:38:30.897Z,2.60
2023-04-04T17:41:00.692Z,2.40
2023-04-04T17:43:28.029Z,2.40
2023-04-04T17:45:54.876Z,2.30
2023-04-04T17:48:22.775Z,2.40
2023-04-04T17:50:53.366Z,2.40
2023-04-04T17:53:20.328Z,2.50
2023-04-04T17:55:47.119Z,2.50
2023-04-04T17:58:15.274Z,2.70
2023-04-04T18:00:42.686Z,2.70
2023-04-04T18:03:09.992Z,2.60
2023-04-04T18:05:38.201Z,2.50
2023-04-04T18:08:05.123Z,2.60
2023-04-04T18:10:32.705Z,2.50
2023-04-04T18:12:59.455Z,2.50
2023-04-04T18:15:26.724Z,2.60
2023-04-04T18:17:53.573Z,2.60
2023-04-04T18:20:34.119Z,2.60
2023-04-04T18:23:02.195Z,2.50
2023-04-04T18:25:30.358Z,2.40
2023-04-04T18:27:57.248Z,2.20
2023-04-04T18:30:24.391Z,1.90
2023-04-04T18:32:51.361Z,1.90
2023-04-04T18:35:18.562Z,1.90
2023-04-04T18:37:45.438Z,2.10
2023-04-04T18:40:12.672Z,2.00
2023-04-04T18:42:39.826Z,2.00
2023-04-04T18:45:08.181Z,2.10
2023-04-04T18:47:35.148Z,2.20
2023-04-04T18:50:01.958Z,2.00
2023-04-04T18:52:28.764Z,2.00
2023-04-04T18:54:55.638Z,1.80
2023-04-04T18:57:22.667Z,1.80
2023-04-04T18:59:49.344Z,1.80
2023-04-04T19:02:16.786Z,1.80
2023-04-04T19:04:44.193Z,1.70
2023-04-04T19:07:11.423Z,1.80
2023-04-04T19:09:39.234Z,1.80
2023-04-04T19:12:06.178Z,1.70
2023-04-04T19:14:33.216Z,1.80
2023-04-04T19:16:59.886Z,1.60
2023-04-04T19:19:26.624Z,1.30
2023-04-04T19:21:53.308Z,1.40
2023-04-04T19:24:20.443Z,1.50
2023-04-04T19:26:47.264Z,1.60
2023-04-04T19:29:21.583Z,1.60
2023-04-04T19:31:48.828Z,1.50
2023-04-04T19:34:16.125Z,1.50
2023-04-04T19:36:43.270Z,1.50
2023-04-04T19:39:12.386Z,1.50
2023-04-04T19:41:40.806Z,1.40
2023-04-04T19:44:19.688Z,1.30
2023-04-04T19:46:47.728Z,1.30
2023-04-04T19:49:16.841Z,1.40
2023-04-04T19:51:52.576Z,1.40
2023-04-04T19:54:26.451Z,1.40
2023-04-04T19:56:59.902Z,1.40
2023-04-04T19:59:51.130Z,1.50
2023-04-04T20:02:33.571Z,1.50
2023-04-04T20:05:01.552Z,1.50
2023-04-04T20:07:29.080Z,1.60
2023-04-04T20:09:56.749Z,1.60
2023-04-04T20:12:24.207Z,1.70
2023-04-04T20:14:51.229Z,1.70
2023-04-04T20:17:18.892Z,1.70
2023-04-04T20:19:45.825Z,1.70
2023-04-04T20:22:13.823Z,1.70
2023-04-04T20:24:42.428Z,1.70
2023-04-04T20:27:10.775Z,1.70
2023-04-04T20:29:37.754Z,1.60
2023-04-04T20:32:08.637Z,1.60
2023-04-04T20:34:50.810Z,1.60
2023-04-04T20:37:21.668Z,1.60
2023-04-04T20:39:49.836Z,1.60
2023-04-04T20:42:36.499Z,1.70
2023-04-04T20:45:13.368Z,1.80
2023-04-04T20:47:55.495Z,1.80
2023-04-04T20:50:27.176Z,1.80
2023-04-04T20:52:59.727Z,1.80
2023-04-04T20:55:28.691Z,2.00
2023-04-04T20:57:59.528Z,2.10
2023-04-04T21:00:29.717Z,2.20
2023-04-04T21:02:59.001Z,2.20
2023-04-04T21:05:32.631Z,2.30
2023-04-04T21:08:01.076Z,2.20
2023-04-04T21:10:28.276Z,2.20
2023-04-04T21:13:00.929Z,2.20
2023-04-04T21:15:29.617Z,2.20
2023-04-04T21:18:01.578Z,2.10
2023-04-04T21:21:07.446Z,2.00
2023-04-04T21:23:40.663Z,2.00
2023-04-04T21:26:09.389Z,1.80
2023-04-04T21:28:43.639Z,1.50
2023-04-04T21:31:16.749Z,1.40
2023-04-04T21:33:45.649Z,1.30
2023-04-04T21:36:29.581Z,1.10
2023-04-04T21:39:07.721Z,0.90
2023-04-04T21:41:35.852Z,0.90
2023-04-04T21:44:04.958Z,0.80
2023-04-04T21:46:37.633Z,0.60
2023-04-04T21:49:06.482Z,0.60
2023-04-04T21:51:34.349Z,0.70
2023-04-04T21:54:02.373Z,0.50
2023-04-04T21:56:33.253Z,0.40
2023-04-04T21:59:02.306Z,0.20
2023-04-04T22:01:30.770Z,0.40
2023-04-04T22:03:59.068Z,0.40
2023-04-04T22:06:27.404Z,0.20
2023-04-04T22:08:56.219Z,0.30
2023-04-04T22:11:26.428Z,0.40
2023-04-04T22:14:03.347Z,0.50
2023-04-04T22:16:31.853Z,0.50
2023-04-04T22:19:01.045Z,0.40
2023-04-04T22:21:30.787Z,0.60
2023-04-04T22:24:04.762Z,0.80
2023-04-04T22:26:35.024Z,1.00
2023-04-04T22:29:04.282Z,0.90
2023-04-04T22:31:34.513Z,0.90
2023-04-04T22:34:03.744Z,0.90
2023-04-04T22:36:30.735Z,1.00
2023-04-04T22:38:58.381Z,1.10
2023-04-04T22:41:30.076Z,1.10
2023-04-04T22:43:58.140Z,1.00
2023-04-04T22:46:26.594Z,1.00
2023-04-04T22:49:06.150Z,0.80
2023-04-04T22:51:45.418Z,0.70
2023-04-04T22:54:17.143Z,0.70
2023-04-04T22:56:44.098Z,0.60
2023-04-04T22:59:11.300Z,0.50
2023-04-04T23:01:38.393Z,0.50
2023-04-04T23:04:06.072Z,0.40
2023-04-04T23:06:32.883Z,0.50
2023-04-04T23:08:59.838Z,0.40
2023-04-04T23:11:27.804Z,0.50
2023-04-04T23:13:57.009Z,0.50
2023-04-04T23:16:26.720Z,0.70
2023-04-04T23:18:53.596Z,0.80
2023-04-04T23:21:22.344Z,0.90
2023-04-04T23:23:49.540Z,0.90
2023-04-04T23:26:16.321Z,1.00
2023-04-04T23:28:43.524Z,1.10
2023-04-04T23:31:11.021Z,1.10
2023-04-04T23:33:38.341Z,0.90
2023-04-04T23:36:05.851Z,0.90
2023-04-04T23:38:32.821Z,0.90
2023-04-04T23:40:59.938Z,0.90
2023-04-04T23:43:27.132Z,0.80
2023-04-04T23:45:53.971Z,0.70
2023-04-04T23:48:21.902Z,0.70
2023-04-04T23:50:50.638Z,0.80
2023-04-04T23:53:17.349Z,0.60
2023-04-04T23:55:44.668Z,0.40
2023-04-04T23:58:11.445Z,0.20
